Time;durP1;ratioP1;P1;durP2;ratioP2;P2;SDS_P1;SDS_P2;PMS_P1;PMS_P2;Temp;Humidity;BMP_temperature;BMP_pressure;BME280_temperature;BME280_humidity;BME280_pressure;Samples;Min_cycle;Max_cycle;Signal;HPM_P1;HPM_P2
2023/05/01 00:00:43;;;;;;;3.47;1.05;;;;;;;5.13;100.00;98520.91;5139582;28;20085;-60
2023/05/01 00:03:09;;;;;;;2.50;1.30;;;;;;;5.02;100.00;98531.47;5139634;28;20055;-59
2023/05/01 00:05:35;;;;;;;1.85;1.30;;;;;;;4.94;100.00;98527.00;5139417;27;20078;-63
2023/05/01 00:08:02;;;;;;;3.85;1.15;;;;;;;5.01;100.00;98540.00;5139379;27;20083;-63
2023/05/01 00:10:28;;;;;;;2.15;1.00;;;;;;;4.81;100.00;98536.28;5139025;27;20399;-64
2023/05/01 00:12:54;;;;;;;1.35;0.90;;;;;;;4.89;100.00;98532.66;5139564;28;20133;-64
2023/05/01 00:15:20;;;;;;;1.80;1.38;;;;;;;4.88;100.00;98531.06;5139001;28;20301;-62
2023/05/01 00:17:47;;;;;;;4.35;1.80;;;;;;;4.96;100.00;98527.41;5139486;27;20130;-61
2023/05/01 00:20:13;;;;;;;6.82;1.20;;;;;;;4.88;100.00;98512.84;5138944;28;20374;-64
2023/05/01 00:22:39;;;;;;;3.75;1.08;;;;;;;4.90;100.00;98486.13;5139489;28;20054;-60
2023/05/01 00:25:06;;;;;;;3.22;1.10;;;;;;;4.82;100.00;98500.63;5138933;28;20047;-58
2023/05/01 00:27:32;;;;;;;2.83;1.10;;;;;;;4.69;100.00;98504.50;5139374;27;20050;-64
2023/05/01 00:29:59;;;;;;;2.05;1.08;;;;;;;4.71;100.00;98516.59;5139120;28;20131;-60
2023/05/01 00:32:25;;;;;;;1.10;1.00;;;;;;;4.73;100.00;98521.69;5139078;28;20083;-57
2023/05/01 00:34:51;;;;;;;3.30;1.20;;;;;;;4.70;100.00;98530.53;5139018;27;20043;-63
2023/05/01 00:37:17;;;;;;;4.55;1.38;;;;;;;4.60;100.00;98520.13;5138938;28;20050;-63
2023/05/01 00:39:43;;;;;;;1.80;1.35;;;;;;;4.61;100.00;98508.94;5138819;28;20150;-62
2023/05/01 00:42:08;;;;;;;1.65;1.00;;;;;;;4.56;100.00;98502.94;5138855;27;20488;-60
2023/05/01 00:44:35;;;;;;;2.03;1.13;;;;;;;4.56;100.00;98516.50;5138967;28;20095;-59
2023/05/01 00:47:03;;;;;;;2.80;1.20;;;;;;;4.59;100.00;98505.75;5138531;28;20054;-56
2023/05/01 00:49:28;;;;;;;1.27;1.10;;;;;;;4.32;100.00;98509.94;5139049;27;20055;-60
2023/05/01 00:51:54;;;;;;;3.75;1.30;;;;;;;4.28;100.00;98510.97;5138525;28;20325;-55
2023/05/01 00:54:22;;;;;;;3.10;1.20;;;;;;;4.24;100.00;98502.72;5138980;28;20089;-58
2023/05/01 00:56:48;;;;;;;1.45;1.27;;;;;;;4.15;100.00;98502.03;5138345;27;20047;-62
2023/05/01 00:59:14;;;;;;;1.20;1.10;;;;;;;4.35;100.00;98503.06;5138295;28;20049;-57
2023/05/01 01:01:41;;;;;;;2.85;1.30;;;;;;;4.32;100.00;98509.94;5138649;27;20055;-60
2023/05/01 01:04:07;;;;;;;4.78;1.65;;;;;;;4.36;100.00;98507.34;5138551;28;20051;-64
2023/05/01 01:06:41;;;;;;;1.30;1.20;;;;;;;4.32;100.00;98511.88;5138548;27;20142;-63
2023/05/01 01:09:17;;;;;;;7.18;1.42;;;;;;;4.15;100.00;98489.25;5138304;27;20061;-63
2023/05/01 01:11:55;;;;;;;1.90;1.10;;;;;;;4.08;100.00;98475.47;5138487;27;20457;-58
2023/05/01 01:14:31;;;;;;;1.42;1.33;;;;;;;4.09;100.00;98479.75;5138423;28;20142;-59
2023/05/01 01:17:03;;;;;;;2.15;1.08;;;;;;;4.16;100.00;98455.56;5138623;27;20142;-63
2023/05/01 01:19:57;;;;;;;1.17;1.08;;;;;;;4.08;100.00;98451.06;5137953;28;20497;-60
2023/05/01 01:22:26;;;;;;;1.60;1.20;;;;;;;3.96;100.00;98451.03;5137392;27;20146;-60
2023/05/01 01:25:26;;;;;;;4.45;1.27;;;;;;;4.00;100.00;98455.47;5138420;28;20047;-63
2023/05/01 01:28:15;;;;;;;1.48;1.20;;;;;;;4.03;100.00;98436.94;5105818;28;20054;-64
2023/05/01 01:31:04;;;;;;;1.80;1.25;;;;;;;3.85;100.00;98442.56;5138165;28;20047;-64
2023/05/01 01:33:53;;;;;;;2.15;1.10;;;;;;;3.92;100.00;98429.25;5138230;27;20062;-62
2023/05/01 01:36:25;;;;;;;1.10;1.08;;;;;;;3.92;100.00;98428.44;5137936;27;20336;-57
2023/05/01 01:38:57;;;;;;;2.83;1.15;;;;;;;3.98;100.00;98418.97;5138349;27;20047;-56
2023/05/01 01:41:29;;;;;;;2.60;1.33;;;;;;;3.97;100.00;98434.44;5137826;28;20057;-62
2023/05/01 01:44:02;;;;;;;1.70;1.30;;;;;;;3.83;100.00;98416.91;5138181;28;20051;-62
2023/05/01 01:46:34;;;;;;;2.35;1.20;;;;;;;3.82;100.00;98408.00;5137644;28;20324;-60
2023/05/01 01:49:05;;;;;;;3.45;1.20;;;;;;;3.81;100.00;98414.56;5137889;28;20070;-63
2023/05/01 01:51:31;;;;;;;3.15;1.38;;;;;;;3.83;100.00;98408.78;5137739;28;20142;-61
2023/05/01 01:53:59;;;;;;;2.35;1.00;;;;;;;3.78;100.00;98409.81;5137570;28;20051;-65
2023/05/01 01:56:28;;;;;;;3.28;1.30;;;;;;;3.76;100.00;98420.19;5137902;27;20096;-59
2023/05/01 01:58:56;;;;;;;3.70;1.27;;;;;;;3.76;100.00;98417.47;5137540;28;20142;-56
2023/05/01 02:01:23;;;;;;;2.00;0.95;;;;;;;3.62;100.00;98406.19;5137846;27;20051;-56
2023/05/01 02:03:50;;;;;;;2.55;1.40;;;;;;;3.60;100.00;98381.31;5137426;28;20057;-62
2023/05/01 02:06:17;;;;;;;3.05;1.23;;;;;;;3.56;100.00;98370.38;5137820;27;20047;-58
2023/05/01 02:08:46;;;;;;;1.15;1.05;;;;;;;3.49;100.00;98373.63;5137421;28;20134;-60
2023/05/01 02:11:13;;;;;;;1.30;0.95;;;;;;;3.59;100.00;98385.94;5137592;28;20138;-58
2023/05/01 02:13:40;;;;;;;1.60;1.05;;;;;;;3.45;100.00;98399.81;5137284;27;20138;-63
2023/05/01 02:16:07;;;;;;;4.97;1.23;;;;;;;3.49;100.00;98389.88;5137287;28;20400;-59
2023/05/01 02:18:35;;;;;;;6.40;1.20;;;;;;;3.48;100.00;98382.09;5137450;27;20082;-61
2023/05/01 02:21:03;;;;;;;1.40;1.25;;;;;;;3.36;100.00;98382.09;5137204;28;20332;-59
2023/05/01 02:23:32;;;;;;;4.10;1.30;;;;;;;3.44;100.00;98376.56;5137442;27;20089;-64
2023/05/01 02:26:02;;;;;;;2.22;1.00;;;;;;;3.46;100.00;98385.13;5137073;28;20142;-58
2023/05/01 02:28:29;;;;;;;3.75;1.00;;;;;;;3.13;100.00;98384.41;5137554;28;20094;-59
2023/05/01 02:30:56;;;;;;;1.20;1.10;;;;;;;3.30;100.00;98374.19;5137096;28;20133;-65
2023/05/01 02:33:22;;;;;;;2.40;1.20;;;;;;;3.31;100.00;98388.50;5139581;27;20104;-63
2023/05/01 02:35:48;;;;;;;3.35;1.30;;;;;;;3.39;100.00;98379.50;5140555;27;20369;-56
2023/05/01 02:38:15;;;;;;;2.33;1.50;;;;;;;3.40;100.00;98382.97;5140958;28;20050;-62
2023/05/01 02:40:45;;;;;;;1.40;1.20;;;;;;;3.33;100.00;98399.78;5140842;28;20050;-64
2023/05/01 02:43:14;;;;;;;4.00;1.30;;;;;;;3.21;100.00;98399.78;5140558;28;20047;-64
2023/05/01 02:45:42;;;;;;;1.55;1.20;;;;;;;3.42;100.00;98399.72;5140943;27;20137;-60
2023/05/01 02:48:12;;;;;;;2.30;1.20;;;;;;;3.36;100.00;98404.53;5140666;27;20051;-62
2023/05/01 02:50:39;;;;;;;2.05;1.33;;;;;;;3.38;100.00;98404.22;5140744;27;20138;-63
2023/05/01 02:53:06;;;;;;;1.13;1.02;;;;;;;3.25;100.00;98408.81;5140521;28;20142;-59
2023/05/01 02:55:32;;;;;;;3.67;1.23;;;;;;;3.34;100.00;98408.75;5140829;27;20078;-63
2023/05/01 02:57:59;;;;;;;2.60;1.20;;;;;;;3.32;100.00;98416.41;5140357;28;20118;-58
2023/05/01 03:00:25;;;;;;;2.88;1.40;;;;;;;3.25;100.00;98417.72;5140715;28;20107;-56
2023/05/01 03:02:51;;;;;;;1.45;1.30;;;;;;;3.35;100.00;98418.44;5140318;28;20051;-57
2023/05/01 03:05:18;;;;;;;1.85;1.30;;;;;;;3.11;100.00;98413.75;5140089;27;20057;-63
2023/05/01 03:07:45;;;;;;;2.83;1.42;;;;;;;3.22;100.00;98410.28;5140480;28;20047;-65
2023/05/01 03:10:11;;;;;;;1.15;1.08;;;;;;;3.29;100.00;98405.09;5140348;28;20066;-57
2023/05/01 03:12:37;;;;;;;1.90;1.20;;;;;;;3.48;100.00;98420.03;5140214;28;20393;-63
2023/05/01 03:15:04;;;;;;;1.40;1.27;;;;;;;3.82;100.00;98432.41;5140252;28;20047;-61
2023/05/01 03:17:30;;;;;;;1.38;1.27;;;;;;;4.47;100.00;98487.56;5140273;27;20424;-58
2023/05/01 03:19:56;;;;;;;2.08;1.40;;;;;;;5.26;100.00;98552.34;5139925;28;20051;-58
2023/05/01 03:22:22;;;;;;;1.30;1.20;;;;;;;5.68;100.00;98646.38;5140303;27;20142;-59
2023/05/01 03:24:49;;;;;;;1.98;1.40;;;;;;;5.93;100.00;98726.00;5140235;28;20058;-60
2023/05/01 03:27:15;;;;;;;1.35;0.93;;;;;;;6.77;100.00;98788.66;5141028;27;20055;-59
2023/05/01 03:29:41;;;;;;;2.28;1.05;;;;;;;6.51;100.00;98825.31;5140018;27;20051;-56
2023/05/01 03:32:08;;;;;;;1.02;0.98;;;;;;;7.06;100.00;98850.97;5140328;27;20047;-64
2023/05/01 03:34:34;;;;;;;1.00;1.00;;;;;;;7.59;100.00;98888.13;5139781;28;20047;-64
2023/05/01 03:37:00;;;;;;;1.52;1.10;;;;;;;7.73;100.00;98913.84;5139925;27;20058;-63
2023/05/01 03:39:26;;;;;;;1.98;1.13;;;;;;;7.81;100.00;98923.00;5139719;28;20137;-60
2023/05/01 03:41:52;;;;;;;4.53;1.50;;;;;;;8.28;100.00;98943.22;5139863;27;20137;-59
2023/05/01 03:44:17;;;;;;;2.72;1.10;;;;;;;8.12;100.00;98962.34;5139278;27;20054;-56
2023/05/01 03:46:43;;;;;;;2.40;1.15;;;;;;;8.72;100.00;98980.16;5139757;28;20404;-58
2023/05/01 03:49:10;;;;;;;1.55;1.02;;;;;;;8.60;100.00;98999.41;5139804;27;20063;-56
2023/05/01 03:51:36;;;;;;;7.53;1.05;;;;;;;9.33;100.00;99002.50;5139592;28;20061;-58
2023/05/01 03:54:02;;;;;;;3.45;1.08;;;;;;;9.54;100.00;99013.13;5139421;28;20430;-60
2023/05/01 03:56:28;;;;;;;1.17;0.90;;;;;;;9.90;100.00;99028.25;5139459;28;20097;-54
2023/05/01 03:58:53;;;;;;;1.48;1.30;;;;;;;9.70;99.03;99032.97;5139788;27;20047;-57
2023/05/01 04:01:19;;;;;;;3.55;1.13;;;;;;;9.46;99.43;99036.00;5139273;28;20051;-60
2023/05/01 04:03:47;;;;;;;3.50;1.30;;;;;;;9.64;96.93;99039.91;5139387;28;20370;-63
2023/05/01 04:06:13;;;;;;;1.40;1.05;;;;;;;10.02;95.89;99049.97;5139473;27;20082;-57
2023/05/01 04:08:39;;;;;;;2.75;1.13;;;;;;;10.02;94.32;99066.41;5139479;28;20439;-57
2023/05/01 04:11:06;;;;;;;2.55;1.27;;;;;;;10.51;93.51;99048.50;5139589;28;20062;-65
2023/05/01 04:13:32;;;;;;;1.20;1.10;;;;;;;10.85;89.76;99060.38;5139219;28;20054;-57
2023/05/01 04:15:58;;;;;;;1.20;0.82;;;;;;;10.67;87.07;99076.56;5139522;28;20089;-60
2023/05/01 04:18:24;;;;;;;4.53;1.20;;;;;;;10.48;90.15;99066.47;5139032;28;20043;-65
2023/05/01 04:20:51;;;;;;;1.95;1.20;;;;;;;10.53;86.62;99068.91;5139278;28;20059;-65
2023/05/01 04:23:17;;;;;;;1.17;0.85;;;;;;;11.23;84.87;99083.25;5139123;28;20059;-59
2023/05/01 04:25:44;;;;;;;1.13;1.02;;;;;;;11.51;82.39;99091.88;5139370;28;20404;-59
2023/05/01 04:28:11;;;;;;;2.10;1.20;;;;;;;11.82;80.85;99091.84;5138940;28;20139;-60
2023/05/01 04:30:37;;;;;;;1.60;1.23;;;;;;;11.63;79.92;99092.78;5139324;28;20062;-60
2023/05/01 04:33:22;;;;;;;1.08;1.02;;;;;;;12.04;79.59;99099.22;5139117;28;20074;-64
2023/05/01 04:35:48;;;;;;;1.30;1.20;;;;;;;11.32;83.50;99095.53;5138696;27;20472;-62
2023/05/01 04:38:14;;;;;;;1.40;1.02;;;;;;;11.78;80.79;99098.09;5139177;28;20043;-57
2023/05/01 04:40:41;;;;;;;0.88;0.88;;;;;;;12.20;78.58;99097.03;5138843;27;20146;-64
2023/05/01 04:43:07;;;;;;;1.80;1.10;;;;;;;12.71;75.42;99109.28;5138946;28;20427;-62
2023/05/01 04:45:33;;;;;;;2.25;1.30;;;;;;;12.52;74.89;99109.50;5138649;28;20138;-62
2023/05/01 04:47:59;;;;;;;1.38;1.10;;;;;;;13.08;74.26;99111.13;5139059;28;20086;-63
2023/05/01 04:50:25;;;;;;;4.35;1.17;;;;;;;12.99;72.64;99121.66;5138533;28;20202;-64
2023/05/01 04:52:51;;;;;;;1.38;1.10;;;;;;;13.40;71.19;99125.13;5139020;27;20047;-63
2023/05/01 04:55:17;;;;;;;1.05;0.90;;;;;;;13.65;70.68;99128.00;5138233;27;20054;-62
2023/05/01 04:57:45;;;;;;;1.65;1.30;;;;;;;14.02;69.79;99127.75;5137751;28;20134;-58
2023/05/01 05:00:11;;;;;;;1.58;0.90;;;;;;;13.89;68.68;99132.84;5138663;28;20078;-65
2023/05/01 05:02:37;;;;;;;1.20;1.10;;;;;;;12.80;68.61;99136.47;5138568;28;20387;-56
2023/05/01 05:05:04;;;;;;;1.90;1.00;;;;;;;13.87;68.06;99132.44;5138409;27;20085;-57
2023/05/01 05:07:29;;;;;;;2.15;1.20;;;;;;;14.03;67.50;99132.09;5138437;28;20051;-64
2023/05/01 05:09:55;;;;;;;1.45;1.15;;;;;;;13.51;68.40;99139.72;5138468;28;20051;-60
2023/05/01 05:12:21;;;;;;;2.75;1.33;;;;;;;13.80;67.93;99132.41;5138289;28;20137;-61
2023/05/01 05:14:48;;;;;;;1.85;1.13;;;;;;;13.85;67.66;99140.28;5138459;28;20051;-58
2023/05/01 05:17:22;;;;;;;1.00;1.00;;;;;;;13.64;66.87;99142.94;5218246;27;20163;-62
2023/05/01 05:19:48;;;;;;;2.25;1.05;;;;;;;13.93;67.26;99143.88;5196577;27;20052;-65
2023/05/01 05:22:14;;;;;;;1.25;1.15;;;;;;;13.79;67.51;99138.28;5196799;27;20050;-65
2023/05/01 05:24:40;;;;;;;0.90;0.90;;;;;;;12.97;66.02;99144.06;5196764;27;20049;-66
2023/05/01 05:27:06;;;;;;;2.25;1.20;;;;;;;12.99;69.51;99138.94;5196460;27;20368;-65
2023/05/01 05:29:32;;;;;;;1.00;0.90;;;;;;;12.82;70.16;99145.09;5196768;27;20050;-60
2023/05/01 05:31:58;;;;;;;1.13;0.80;;;;;;;12.82;68.50;99143.16;5196575;27;20050;-56
2023/05/01 05:34:25;;;;;;;1.25;0.80;;;;;;;13.53;68.25;99153.09;5196585;27;20046;-64
2023/05/01 05:36:51;;;;;;;1.90;1.20;;;;;;;13.37;67.40;99158.94;5178032;27;20054;-64
2023/05/01 05:39:17;;;;;;;1.77;1.13;;;;;;;13.76;66.18;99155.59;5175603;27;20074;-61
2023/05/01 05:41:43;;;;;;;0.80;0.80;;;;;;;14.44;64.77;99159.38;5175336;27;20100;-63
2023/05/01 05:44:08;;;;;;;3.25;0.98;;;;;;;14.91;62.73;99154.75;5175685;27;20053;-59
2023/05/01 05:46:34;;;;;;;3.28;0.90;;;;;;;14.81;61.10;99155.53;5175177;27;20439;-60
2023/05/01 05:49:00;;;;;;;0.93;0.85;;;;;;;14.67;61.54;99158.28;5174965;27;20047;-57
2023/05/01 05:51:27;;;;;;;1.63;1.05;;;;;;;15.53;60.04;99165.34;5175325;27;20051;-56
2023/05/01 05:53:53;;;;;;;0.85;0.80;;;;;;;15.74;58.73;99169.25;5174968;27;20413;-61
2023/05/01 05:56:19;;;;;;;1.65;0.80;;;;;;;16.46;58.33;99166.94;5175119;27;20082;-63
2023/05/01 05:58:45;;;;;;;1.15;0.98;;;;;;;16.26;57.50;99166.69;5175129;27;20050;-63
2023/05/01 06:01:10;;;;;;;1.13;0.80;;;;;;;16.15;57.57;99177.00;5175407;27;20141;-64
2023/05/01 06:03:37;;;;;;;1.73;1.00;;;;;;;15.96;58.58;99170.75;5175032;27;20415;-64
2023/05/01 06:06:03;;;;;;;1.60;1.25;;;;;;;16.17;58.01;99175.41;5175185;27;20066;-56
2023/05/01 06:08:29;;;;;;;1.05;0.88;;;;;;;16.11;57.01;99187.28;5174792;27;20133;-64
2023/05/01 06:10:57;;;;;;;0.90;0.85;;;;;;;16.23;56.84;99181.31;5175186;27;20368;-63
2023/05/01 06:13:23;;;;;;;0.88;0.80;;;;;;;15.42;58.27;99178.38;5174801;27;20046;-61
2023/05/01 06:15:49;;;;;;;1.42;0.93;;;;;;;15.98;57.58;99189.72;5175036;27;20061;-59
2023/05/01 06:18:15;;;;;;;2.35;1.02;;;;;;;15.63;58.29;99190.59;5174614;27;20042;-64
2023/05/01 06:20:41;;;;;;;1.23;0.90;;;;;;;15.28;58.58;99192.19;5174850;27;20134;-64
2023/05/01 06:23:08;;;;;;;2.28;0.95;;;;;;;15.33;58.32;99194.56;5174602;27;20400;-58
2023/05/01 06:25:35;;;;;;;3.83;0.93;;;;;;;15.62;57.87;99202.81;5174647;27;20062;-61
2023/05/01 06:28:02;;;;;;;1.25;1.08;;;;;;;16.26;57.05;99188.81;5164956;27;20047;-58
2023/05/01 06:30:28;;;;;;;2.05;1.15;;;;;;;16.59;55.43;99194.94;5160643;27;20061;-57
2023/05/01 06:32:54;;;;;;;2.70;0.80;;;;;;;16.89;55.69;99200.72;5160695;27;20042;-58
2023/05/01 06:35:20;;;;;;;2.13;1.10;;;;;;;16.86;55.11;99196.00;5160430;27;20082;-61
2023/05/01 06:37:46;;;;;;;3.35;1.15;;;;;;;16.92;53.75;99199.88;5160749;27;20297;-62
2023/05/01 06:40:12;;;;;;;1.88;0.82;;;;;;;17.10;53.66;99199.78;5160462;27;20150;-63
2023/05/01 06:42:39;;;;;;;1.38;1.00;;;;;;;16.69;53.33;99202.38;5160815;27;20047;-62
2023/05/01 06:45:06;;;;;;;0.98;0.80;;;;;;;17.21;53.53;99202.44;5160290;27;20134;-61
2023/05/01 06:47:32;;;;;;;4.28;0.95;;;;;;;17.11;53.23;99201.34;5160713;27;20062;-58
2023/05/01 06:49:58;;;;;;;2.42;0.90;;;;;;;17.77;53.03;99208.69;5160204;27;20054;-64
2023/05/01 06:52:24;;;;;;;2.35;0.93;;;;;;;18.43;52.24;99209.50;5160141;27;20054;-62
2023/05/01 06:54:50;;;;;;;1.55;0.90;;;;;;;18.54;51.89;99212.91;5160461;27;20050;-60
2023/05/01 06:57:16;;;;;;;1.67;1.38;;;;;;;17.95;52.51;99213.25;5160227;27;20154;-57
2023/05/01 06:59:43;;;;;;;1.35;1.05;;;;;;;17.90;51.57;99219.25;5160231;27;20133;-56
2023/05/01 07:02:09;;;;;;;1.67;1.08;;;;;;;18.03;51.70;99220.28;5160023;27;20050;-60
2023/05/01 07:04:35;;;;;;;0.93;0.93;;;;;;;18.02;52.57;99221.47;5160381;27;20042;-59
2023/05/01 07:07:02;;;;;;;1.02;0.93;;;;;;;17.49;52.60;99223.56;5159846;27;20050;-61
2023/05/01 07:09:27;;;;;;;1.67;1.00;;;;;;;16.65;53.25;99221.78;5160403;27;20049;-63
2023/05/01 07:11:55;;;;;;;1.95;0.90;;;;;;;16.67;53.53;99216.66;5159871;27;20145;-62
2023/05/01 07:14:21;;;;;;;4.78;1.00;;;;;;;16.91;53.62;99228.00;5160153;27;20107;-61
2023/05/01 07:16:48;;;;;;;1.30;1.20;;;;;;;17.06;53.13;99223.94;5159637;27;20046;-64
2023/05/01 07:19:14;;;;;;;1.88;1.15;;;;;;;16.80;53.72;99222.53;5159998;27;20055;-64
2023/05/01 07:21:40;;;;;;;1.15;0.95;;;;;;;17.56;52.54;99231.03;5160003;27;20105;-61
2023/05/01 07:24:06;;;;;;;1.58;1.10;;;;;;;17.90;51.92;99230.34;5159860;27;20130;-64
2023/05/01 07:26:32;;;;;;;1.23;0.80;;;;;;;18.28;50.72;99219.97;5159982;27;20401;-64
2023/05/01 07:28:58;;;;;;;1.65;1.00;;;;;;;18.57;49.75;99231.50;5159757;27;20428;-64
2023/05/01 07:31:24;;;;;;;1.38;0.93;;;;;;;18.87;49.84;99239.06;5159919;27;20138;-60
2023/05/01 07:33:51;;;;;;;1.33;1.08;;;;;;;18.27;49.91;99233.06;5159671;27;20046;-58
2023/05/01 07:36:19;;;;;;;1.05;0.82;;;;;;;17.54;51.11;99230.66;5159775;27;20042;-62
2023/05/01 07:38:45;;;;;;;2.38;0.90;;;;;;;17.91;50.38;99240.22;5158501;27;20097;-60
2023/05/01 07:41:11;;;;;;;3.85;1.40;;;;;;;18.39;49.89;99239.25;5159749;27;20046;-58
2023/05/01 07:43:37;;;;;;;0.80;0.80;;;;;;;18.39;49.01;99231.72;5159335;27;20463;-57
2023/05/01 07:46:02;;;;;;;0.77;0.77;;;;;;;18.69;49.07;99244.03;5159746;27;20058;-57
2023/05/01 07:48:29;;;;;;;3.03;1.00;;;;;;;18.31;49.24;99239.34;5159222;27;20525;-62
2023/05/01 07:50:55;;;;;;;4.43;1.10;;;;;;;18.93;48.40;99242.16;5159410;27;20050;-64
2023/05/01 07:53:21;;;;;;;1.17;0.93;;;;;;;18.20;48.88;99243.47;5159265;27;20412;-60
2023/05/01 07:55:47;;;;;;;2.30;1.15;;;;;;;18.27;49.63;99238.63;5159017;27;20065;-60
2023/05/01 07:58:13;;;;;;;2.55;1.10;;;;;;;18.81;49.05;99240.72;5159281;27;20055;-60
2023/05/01 08:00:39;;;;;;;1.50;1.00;;;;;;;18.93;49.07;99245.72;5159107;27;20050;-59
2023/05/01 08:03:05;;;;;;;1.05;0.98;;;;;;;19.24;50.00;99248.41;5159185;27;20043;-63
2023/05/01 08:05:31;;;;;;;2.08;1.10;;;;;;;19.58;49.09;99248.22;5158903;27;20114;-64
2023/05/01 08:07:58;;;;;;;0.73;0.73;;;;;;;19.78;49.07;99250.31;5158941;27;20057;-63
2023/05/01 08:10:24;;;;;;;1.52;1.00;;;;;;;19.08;49.08;99229.59;5158847;27;20047;-64
2023/05/01 08:12:50;;;;;;;1.63;1.02;;;;;;;19.58;48.92;99248.22;5159216;27;20054;-59
2023/05/01 08:15:16;;;;;;;1.02;1.00;;;;;;;19.66;47.95;99244.16;5158963;27;20069;-59
2023/05/01 08:17:42;;;;;;;0.80;0.80;;;;;;;19.58;48.48;99251.00;5159015;27;20327;-58
2023/05/01 08:20:10;;;;;;;0.90;0.90;;;;;;;18.90;47.66;99243.00;5158770;27;20055;-59
2023/05/01 08:22:35;;;;;;;1.45;0.93;;;;;;;18.70;47.55;99234.50;5158680;27;20069;-60
2023/05/01 08:25:03;;;;;;;1.90;1.05;;;;;;;19.15;47.60;99240.59;5158946;27;20137;-59
2023/05/01 08:27:29;;;;;;;1.33;1.13;;;;;;;19.02;47.27;99242.38;5158662;27;20046;-60
2023/05/01 08:29:55;;;;;;;2.78;1.25;;;;;;;19.75;47.10;99247.16;5158890;27;20050;-64
2023/05/01 08:32:21;;;;;;;1.33;1.05;;;;;;;20.36;46.78;99236.84;5158532;27;20391;-64
2023/05/01 08:34:47;;;;;;;0.90;0.90;;;;;;;20.47;45.99;99237.41;5158885;27;20085;-59
2023/05/01 08:37:13;;;;;;;1.95;0.93;;;;;;;19.84;45.47;99245.84;5158339;27;20096;-56
2023/05/01 08:39:39;;;;;;;0.90;0.90;;;;;;;19.25;45.91;99244.41;5158870;27;20404;-64
2023/05/01 08:42:06;;;;;;;5.50;0.80;;;;;;;18.40;46.64;99243.63;5158274;27;20142;-64
2023/05/01 08:44:36;;;;;;;1.15;0.90;;;;;;;19.47;46.30;99245.63;5158740;27;20362;-59
2023/05/01 08:47:11;;;;;;;1.63;0.80;;;;;;;19.13;46.12;99247.81;5158465;27;20055;-65
2023/05/01 08:49:38;;;;;;;0.73;0.73;;;;;;;19.33;45.54;99251.44;5158449;27;20042;-56
2023/05/01 08:52:06;;;;;;;1.05;1.00;;;;;;;19.35;45.76;99251.78;5158327;27;20133;-63
2023/05/01 08:54:32;;;;;;;1.63;0.98;;;;;;;19.36;45.56;99256.16;5158120;27;20053;-57
2023/05/01 08:57:02;;;;;;;2.20;0.80;;;;;;;18.32;47.17;99246.47;5158506;27;20050;-55
2023/05/01 08:59:30;;;;;;;3.03;1.00;;;;;;;17.91;47.72;99248.56;5158255;27;20052;-60
2023/05/01 09:02:00;;;;;;;1.13;0.70;;;;;;;17.35;47.45;99249.41;5158573;27;20046;-59
2023/05/01 09:04:30;;;;;;;1.17;0.90;;;;;;;17.06;48.09;99257.19;5158135;27;20309;-61
2023/05/01 09:06:59;;;;;;;0.93;0.93;;;;;;;18.42;47.23;99253.09;5158468;27;20064;-59
2023/05/01 09:09:25;;;;;;;1.77;1.10;;;;;;;19.27;46.95;99258.69;5158004;27;20084;-56
2023/05/01 09:11:52;;;;;;;1.40;0.82;;;;;;;19.51;46.58;99245.59;5158177;27;20053;-56
2023/05/01 09:14:18;;;;;;;1.95;0.90;;;;;;;18.74;46.25;99260.25;5158201;27;20065;-58
2023/05/01 09:16:44;;;;;;;4.97;1.10;;;;;;;18.62;47.54;99253.25;5158029;27;20339;-58
2023/05/01 09:19:10;;;;;;;0.80;0.80;;;;;;;19.03;46.72;99255.09;5158096;27;20195;-60
2023/05/01 09:21:36;;;;;;;2.67;0.80;;;;;;;18.98;47.14;99250.78;5158001;27;20047;-57
2023/05/01 09:24:02;;;;;;;1.65;0.90;;;;;;;18.29;47.66;99252.88;5158093;27;20107;-59
2023/05/01 09:26:28;;;;;;;3.45;0.70;;;;;;;19.10;46.05;99246.66;5157810;27;20556;-65
2023/05/01 09:28:56;;;;;;;2.63;1.00;;;;;;;19.78;45.37;99253.09;5158223;27;20078;-64
2023/05/01 09:31:25;;;;;;;1.85;0.90;;;;;;;19.48;46.92;99251.97;5157713;27;20047;-58
2023/05/01 09:33:55;;;;;;;0.75;0.75;;;;;;;19.82;46.07;99259.38;5158231;27;20058;-56
2023/05/01 09:36:22;;;;;;;3.05;1.10;;;;;;;19.82;45.97;99259.38;5157481;27;20063;-63
2023/05/01 09:38:48;;;;;;;2.10;1.05;;;;;;;19.22;45.89;99265.50;5157614;27;20051;-59
2023/05/01 09:41:14;;;;;;;0.98;0.98;;;;;;;19.05;45.82;99252.66;5157945;27;20054;-63
2023/05/01 09:43:42;;;;;;;0.80;0.80;;;;;;;18.90;44.60;99246.53;5157820;27;20058;-64
2023/05/01 09:46:10;;;;;;;1.45;1.00;;;;;;;18.76;44.28;99258.66;5157901;27;20050;-57
2023/05/01 09:48:36;;;;;;;1.23;1.00;;;;;;;18.46;44.24;99255.81;5157628;27;20050;-60
2023/05/01 09:51:21;;;;;;;1.23;0.93;;;;;;;19.11;44.58;99256.53;5157857;27;20135;-58
2023/05/01 09:53:46;;;;;;;;;;;;;;;18.73;43.51;99250.38;5158029;27;20046;-62
2023/05/01 09:56:13;;;;;;;2.60;0.90;;;;;;;18.33;44.93;99256.41;5157775;27;19934;-62
2023/05/01 09:58:39;;;;;;;1.13;1.05;;;;;;;16.58;46.60;99246.75;5157440;27;20047;-62
2023/05/01 10:01:05;;;;;;;1.02;0.93;;;;;;;16.68;47.81;99254.19;5157815;27;20138;-56
2023/05/01 10:03:33;;;;;;;1.92;1.00;;;;;;;17.37;47.39;99255.34;5160203;27;20332;-63
2023/05/01 10:06:01;;;;;;;2.70;1.05;;;;;;;17.74;47.73;99247.50;5161138;27;20355;-56
2023/05/01 10:08:44;;;;;;;0.80;0.80;;;;;;;17.32;47.44;99257.75;5161212;27;20159;-63
2023/05/01 10:11:09;;;;;;;2.67;1.27;;;;;;;17.97;47.35;99255.22;5160953;27;20130;-58
2023/05/01 10:13:35;;;;;;;1.25;0.82;;;;;;;17.85;46.88;99242.66;5161222;27;20051;-58
2023/05/01 10:16:06;;;;;;;4.18;1.15;;;;;;;17.84;47.45;99244.66;5160801;27;20463;-59
2023/05/01 10:18:33;;;;;;;3.30;1.05;;;;;;;18.00;47.84;99248.84;5161174;27;20142;-63
2023/05/01 10:20:59;;;;;;;1.02;0.80;;;;;;;18.52;47.47;99259.72;5160785;27;20138;-58
2023/05/01 10:23:25;;;;;;;2.47;1.40;;;;;;;18.61;47.31;99259.22;5161129;27;20430;-56
2023/05/01 10:25:52;;;;;;;0.90;0.90;;;;;;;17.76;46.63;99257.03;5160518;27;20335;-59
2023/05/01 10:28:19;;;;;;;0.70;0.70;;;;;;;18.26;46.92;99252.91;5160842;27;20046;-59
2023/05/01 10:30:46;;;;;;;0.82;0.82;;;;;;;17.60;47.49;99240.91;5160593;27;20408;-61
2023/05/01 10:33:12;;;;;;;1.85;1.08;;;;;;;18.25;47.09;99246.56;5160657;27;20050;-57
2023/05/01 10:35:41;;;;;;;2.83;1.40;;;;;;;18.06;47.10;99247.19;5160173;27;20099;-61
2023/05/01 10:38:11;;;;;;;2.17;1.00;;;;;;;18.05;46.85;99248.38;5160397;27;20094;-62
2023/05/01 10:40:47;;;;;;;1.52;0.88;;;;;;;18.06;46.78;99252.72;5160799;27;20137;-58
2023/05/01 10:43:16;;;;;;;2.20;1.00;;;;;;;17.67;46.38;99245.59;5160376;27;20141;-56
2023/05/01 10:45:43;;;;;;;1.95;1.25;;;;;;;17.64;46.04;99241.66;5160706;27;20425;-57
2023/05/01 10:48:09;;;;;;;1.02;0.80;;;;;;;17.84;46.84;99241.88;5160281;27;20047;-64
2023/05/01 10:50:35;;;;;;;1.30;0.90;;;;;;;18.07;47.60;99246.00;5160656;27;20081;-58
2023/05/01 10:53:16;;;;;;;0.93;0.90;;;;;;;18.01;47.84;99242.09;5160249;27;20095;-56
2023/05/01 10:55:43;;;;;;;2.10;1.05;;;;;;;17.87;47.99;99241.06;5160305;27;20038;-65
2023/05/01 10:58:09;;;;;;;1.40;1.05;;;;;;;17.15;47.49;99245.63;5160252;27;20435;-56
2023/05/01 11:00:36;;;;;;;2.22;1.05;;;;;;;16.66;47.97;99251.06;5160187;27;20133;-61
2023/05/01 11:03:35;;;;;;;2.35;0.98;;;;;;;16.43;47.38;99248.03;5160340;27;20046;-59
2023/05/01 11:06:05;;;;;;;0.70;0.70;;;;;;;15.47;47.86;99252.56;5114965;27;20086;-55
2023/05/01 11:08:32;;;;;;;4.15;0.88;;;;;;;15.21;47.61;99244.69;5160435;27;20137;-59
2023/05/01 11:11:36;;;;;;;1.15;1.05;;;;;;;15.16;48.80;99237.59;5160100;27;20122;-58
2023/05/01 11:14:03;;;;;;;1.90;1.00;;;;;;;14.87;48.71;99242.28;5159597;27;20065;-58
2023/05/01 11:16:45;;;;;;;1.85;1.10;;;;;;;14.33;51.29;99233.81;5160108;27;20147;-63
2023/05/01 11:19:46;;;;;;;4.07;1.00;;;;;;;14.48;51.95;99231.09;5159753;27;20058;-58
2023/05/01 11:22:12;;;;;;;3.75;1.23;;;;;;;14.60;51.20;99239.06;5159990;27;20052;-63
2023/05/01 11:24:38;;;;;;;1.65;1.15;;;;;;;14.53;51.50;99237.06;5159951;27;20102;-63
2023/05/01 11:27:05;;;;;;;1.35;1.17;;;;;;;14.23;52.43;99228.25;5159756;27;20060;-60
2023/05/01 11:29:32;;;;;;;1.80;0.90;;;;;;;14.09;51.69;99229.78;5159893;27;20094;-60
2023/05/01 11:31:59;;;;;;;1.95;0.85;;;;;;;13.93;51.99;99226.56;5159690;27;20050;-61
2023/05/01 11:34:25;;;;;;;1.10;1.00;;;;;;;13.89;53.50;99232.06;5159890;27;20088;-57
2023/05/01 11:36:52;;;;;;;0.85;0.82;;;;;;;13.67;53.00;99229.56;5159294;27;20145;-55